NCAR-RAP Real-Time Weather Data

Output produced by METARs form (23 June 2018  19:40 UTC)
found at http://weather.rap.ucar.edu/surface/
 
KDCA 231918Z 17005KT 10SM BKN021 BKN120 26/21 A2979 RMK AO2 T02560206
KDCA 231852Z 17006KT 10SM BKN023 BKN032 BKN120 BKN150 26/21 A2980 RMK AO2 LTG DSNT SE SLP089 CB DSNT SE-S MOV E T02560211
KDCA 231850Z 17007KT 10SM BKN023 BKN032 BKN120 BKN150 26/21 A2980 RMK AO2 LTG DSNT SE CB DSNT SE-S MOV E
KDCA 231846Z 16007KT 10SM FEW020 BKN032 OVC120 26/21 A2980 RMK AO2 LTG DSNT SE
KDCA 231844Z 16007KT 10SM SCT021 BKN028 OVC120 26/21 A2980 RMK AO2 LTG DSNT SE AND S T02560211
KDCA 231842Z 15006KT 10SM FEW016 SCT024 OVC031 26/21 A2980 RMK AO2 LTG DSNT SE AND S T02560211
KDCA 231752Z 15004KT 10SM FEW013 BKN023 OVC027 25/21 A2982 RMK AO2 SLP097 BINOVC 60000 T02500211 10250 20211 58008
KDCA 231654Z 19003KT 10SM FEW010 OVC016 24/21 A2983 RMK AO2 T02390206
KDCA 231652Z 19003KT 10SM FEW007 OVC014 24/21 A2983 RMK AO2 SLP102 T02390211
KDCA 231621Z 16003KT 10SM FEW007 OVC014 24/21 A2983 RMK AO2 T02390211
KDCA 231602Z 00000KT 10SM OVC010 24/21 A2984 RMK AO2 T02390206
KDCA 231552Z 00000KT 10SM BKN008 OVC013 24/21 A2983 RMK AO2 DZE33 SLP102 P0000 T02390211
KDCA 231537Z 00000KT 10SM BKN008 OVC014 23/21 A2983 RMK AO2 DZE33 P0000 T02330206
KDCA 231533Z 00000KT 10SM BKN010 OVC014 23/21 A2983 RMK AO2 DZE33 P0000 T02330211
KDCA 231517Z 00000KT 3SM -DZ BR OVC008 22/21 A2984 RMK AO2 P0000 T02220206
KDCA 231512Z 00000KT 2SM -DZ BR OVC008 22/21 A2984 RMK AO2 P0000 T02220206
KDCA 231508Z 00000KT 1 3/4SM -DZ BR OVC008 23/21 A2984 RMK AO2 P0000 T02280206
KDCA 231455Z 00000KT 1 3/4SM R01/6000FT -DZ BR OVC006 22/21 A2984 RMK AO2 P0000 T02220206
KDCA 231452Z 03003KT 2SM R01/6000FT -DZ BR OVC006 22/21 A2985 RMK AO2 SLP106 P0000 60000 T02220206 53002
KDCA 231352Z 00000KT 6SM -DZ BR OVC005 22/20 A2984 RMK AO2 DZB47 SLP104 P0000 T02220200
KDCA 231252Z 03005KT 8SM OVC005 22/20 A2984 RMK AO2 DZE52 SLP104 P0000 T02170200
KDCA 231202Z 02003KT 3SM -DZ BR OVC004 21/19 A2984 RMK AO2 P0000 T02110194
KDCA 231152Z 02003KT 2SM -DZ BR OVC004 21/20 A2984 RMK AO2 SLP104 P0000 60001 70053 T02110200 10211 20194 50009
KDCA 231150Z 02003KT 2SM -DZ BR OVC004 21/19 A2984 RMK AO2 P0000
KDCA 231138Z 02003KT 1 3/4SM -DZ BR OVC004 21/19 A2984 RMK AO2 P0000 T02110194
KDCA 231052Z 01004KT 2 1/2SM -DZ BR OVC004 21/19 A2982 RMK AO2 DZB44 SLP099 P0000 T02060194
KDCA 231044Z 02004KT 2 1/2SM -DZ BR OVC004 21/19 A2982 RMK AO2 DZB44 P0000 T02060189
KDCA 230952Z 03006KT 10SM OVC004 21/19 A2981 RMK AO2 RAB38E47 SLP095 P0000 T02060189
KDCA 230912Z 01004KT 10SM OVC004 21/19 A2982 RMK AO2 T02060189
KDCA 230852Z 02005KT 10SM OVC005 20/18 A2981 RMK AO2 DZE43 SLP095 P0000 60001 T02000183 58009
KDCA 230844Z 02005KT 10SM OVC005 20/19 A2981 RMK AO2 DZE43 P0000 T02000189
KDCA 230752Z 05006KT 4SM -DZ BR BKN004 OVC014 20/18 A2983 RMK AO2 SLP100 P0001 T02000183
KDCA 230747Z 04006KT 3SM -DZ BR BKN004 OVC014 20/18 A2983 RMK AO2 P0001
KDCA 230731Z 01005KT 2 1/2SM -DZ BR OVC004 20/18 A2984 RMK AO2 P0000 T02000183
KDCA 230715Z 36005KT 3SM -DZ BR OVC004 19/18 A2984 RMK AO2 P0000 T01940183
KDCA 230704Z 36006KT 2 1/2SM -DZ BR OVC004 19/18 A2984 RMK AO2 P0000 T01940183
KDCA 230652Z 02006KT 1 3/4SM -DZ BR OVC004 19/18 A2984 RMK AO2 SLP104 P0000 T01940183
KDCA 230621Z 36004KT 3SM -DZ BR OVC004 19/18 A2986 RMK AO2 P0000 T01940178
KDCA 230606Z 01006KT 2 1/2SM -DZ BR OVC004 19/18 A2986 RMK AO2 P0000 T01940178
KDCA 230552Z 02005KT 3SM -DZ BR OVC004 19/18 A2986 RMK AO2 DZB06 SLP111 P0000 60000 T01940178 10206 20194 58006
KDCA 230541Z 04004KT 4SM -DZ BR OVC004 19/18 A2986 RMK AO2 DZB06 P0000 T01940178
KDCA 230530Z 02005KT 3SM -DZ BR OVC005 19/18 A2986 RMK AO2 DZB06 P0000 T01940178
KDCA 230516Z 03007KT 2 1/2SM -DZ BR OVC005 19/18 A2986 RMK AO2 DZB06 P0000 T01940178
KDCA 230452Z 03006KT 9SM SCT004 OVC006 19/18 A2987 RMK AO2 SLP115 T01940178 402500194
KDCA 230406Z 05006KT 10SM OVC007 19/17 A2988 RMK AO2 T01940172
KDCA 230352Z 05009KT 10SM OVC008 19/18 A2987 RMK AO2 LTG DSNT S SLP115 T01940178
KDCA 230331Z 04009KT 10SM OVC009 20/18 A2986 RMK AO2 LTG DSNT SW T02000178
KDCA 230252Z 07011KT 10SM OVC011 20/17 A2988 RMK AO2 SLP117 T02000172 58001
KDCA 230152Z 05009KT 10SM OVC011 20/18 A2989 RMK AO2 SLP121 T02000178
KDCA 230052Z 05011KT 10SM OVC012 21/18 A2989 RMK AO2 SLP122 T02060178
KDCA 222352Z 06012KT 10SM OVC010 21/18 A2988 RMK AO2 RAE25 SLP119 P0001 60004 T02060178 10228 20206 58003
KDCA 222252Z 02006KT 10SM -RA OVC012 21/18 A2990 RMK AO2 RAB48 SLP125 P0000 T02060178
KDCA 222228Z 05009KT 10SM OVC012 21/18 A2989 RMK AO2 T02060183
KDCA 222152Z 06010KT 10SM BKN013 OVC023 21/18 A2988 RMK AO2 RAE15 SLP119 P0000 T02060183
KDCA 222116Z 06008KT 10SM BKN015 OVC023 21/18 A2990 RMK AO2 RAE15 P0000 T02060178
KDCA 222100Z 10010G17KT 3SM -RA BKN016 OVC021 21/18 A2989 RMK AO2 P0000 T02060178
KDCA 222052Z 08009G17KT 3SM -RA BKN014 OVC021 21/18 A2989 RMK AO2 RAB1957E12B45 SLP122 P0000 60003 T02110178 56003
KDCA 221952Z 09009KT 10SM BKN014 BKN019 OVC029 21/18 A2990 RMK AO2 RAE12 SLP124 P0000 T02110178
KDCA 221950Z 08009KT 10SM BKN014 BKN019 OVC029 21/18 A2990 RMK AO2 RAE12 P0000
KDCA 221903Z 09009KT 7SM -RA BKN014 OVC018 21/18 A2989 RMK AO2 P0000 T02110183
KDCA 221852Z 10008G21KT 3SM -RA BKN014 OVC021 21/18 A2990 RMK AO2 SLP126 P0003 T02110183
KDCA 221838Z 09009KT 2 1/2SM R01/5500VP6000FT RA BKN012 OVC019 22/19 A2990 RMK AO2 VIS S-SW 1 1/2 P0001 T02170189
KDCA 221816Z 07009KT 7SM -RA BKN014 OVC022 21/19 A2990 RMK AO2 P0001 T02110189
KDCA 221806Z 08009KT 7SM -RA SCT011 BKN016 OVC021 21/19 A2990 RMK AO2 VIS NW-NE 2 P0001 T02110189
KDCA 221756Z 07009KT 3SM R01/4000VP6000FT -RA BR SCT009 BKN016 OVC044 21/19 A2990 RMK AO2 VIS NW-NE 2 P0001 T02110189
KDCA 221752Z 07009KT 1 1/4SM R01/3500VP6000FT RA BR SCT009 BKN016 OVC040 21/19 A2990 RMK AO2 SLP125 VIS S 2 P0026 60048 T02110189 10222 20211 50004
KDCA 221743Z 07010KT 1 1/4SM R01/3500V5000FT +RA BR FEW010 BKN021 OVC044 22/19 A2991 RMK AO2 P0013 T02170194
KDCA 221739Z 07008KT 1 1/2SM R01/4000VP6000FT +RA BR BKN014 BKN026 OVC044 22/19 A2991 RMK AO2 P0009 T02170194
KDCA 221731Z 09010KT 2SM +RA BKN014 BKN021 OVC029 22/19 A2991 RMK AO2 P0005 T02170189
KDCA 221728Z 07010KT 3SM RA BKN014 BKN021 OVC032 22/19 A2991 RMK AO2 P0004 T02220194
KDCA 221709Z 07009KT 5SM -RA BKN016 BKN023 OVC049 22/19 A2991 RMK AO2 P0003 T02170189
KDCA 221655Z 08009KT 2 1/2SM R01/5000VP6000FT +RA BKN016 BKN023 OVC050 22/19 A2991 RMK AO2 P0000 T02170189
KDCA 221652Z 08008KT 6SM -RA SCT016 BKN022 OVC032 22/19 A2992 RMK AO2 SLP130 P0006 T02170189
KDCA 221615Z 08008KT 4SM -RA BKN016 OVC020 22/19 A2991 RMK AO2 P0004 T02170189
KDCA 221552Z 08010KT 6SM RA BKN014 OVC045 22/19 A2991 RMK AO2 SLP128 P0004 T02170189
KDCA 221509Z 07006KT 10SM -RA BKN015 BKN055 OVC070 22/19 A2990 RMK AO2 P0001 T02170189
KDCA 221452Z 07009KT 6SM -RA BKN055 OVC070 22/19 A2989 RMK AO2 SLP120 P0007 60012 T02170189 50005
KDCA 221422Z 06009KT 5SM RA BKN055 OVC090 21/18 A2989 RMK AO2 P0004 T02110183
KDCA 221352Z COR 05007KT 8SM RA OVC055 21/18 A2989 RMK AO2 SLP122 P0002 T02110178
KDCA 221252Z AUTO 05007KT 10SM -RA BKN050 OVC070 21/17 A2989 RMK AO2 SLP122 P0003 T02110172
KDCA 221152Z 09006KT 10SM -RA BKN060 BKN080 OVC110 22/18 A2987 RMK AO2 SLP115 P0003 60004 70005 T02220178 10244 20217 51017
KDCA 221052Z 06006KT 10SM -RA SCT090 BKN120 OVC140 23/17 A2986 RMK AO2 RAB03 SLP111 P0001 T02280172
KDCA 221029Z 08006KT 10SM -RA BKN065 OVC090 23/18 A2985 RMK AO2 RAB03 P0000 T02330178
KDCA 220952Z 06007KT 10SM FEW060 OVC075 23/19 A2984 RMK AO2 SLP105 T02330194
KDCA 220852Z 08006KT 10SM SCT070 OVC100 24/19 A2982 RMK AO2 SLP098 60000 T02390189 55001
KDCA 220752Z 10008KT 10SM OVC150 24/20 A2981 RMK AO2 LTG DSNT SW RAB16E25 SLP095 P0000 T02390200
KDCA 220652Z 12009KT 10SM BKN075 BKN100 OVC150 24/20 A2982 RMK AO2 RAB38E48 SLP097 P0000 T02390200
KDCA 220552Z COR 11005KT 10SM OVC075 24/21 A2983 RMK AO2 RAE51 SLP099 P0001 60001 T02440206 10272 20244 50000
KDCA 220452Z 12006KT 10SM -RA OVC090 25/21 A2984 RMK AO2 RAB26 SLP103 P0000 T02500206 403000222
KDCA 220352Z 11004KT 10SM FEW070 OVC095 26/20 A2984 RMK AO2 SLP103 T02560200
KDCA 220252Z 09003KT 10SM SCT042 OVC200 26/19 A2982 RMK AO2 SLP099 T02610189 51007
KDCA 220152Z 10006KT 10SM SCT041 BKN140 BKN220 26/19 A2982 RMK AO2 SLP098 T02610194
KDCA 220052Z 09006KT 10SM FEW048 BKN075 OVC230 26/21 A2981 RMK AO2 SLP095 T02610206
KDCA 212352Z 08004KT 10SM BKN034 BKN040 OVC220 27/20 A2980 RMK AO2 SLP092 T02720200 10300 20267 53009
KDCA 212252Z 04006KT 10SM SCT034 BKN080 OVC220 27/20 A2978 RMK AO2 SLP084 T02720200
KDCA 212152Z 02009KT 10SM SCT034 BKN080 OVC200 28/20 A2977 RMK AO2 SLP081 T02780200
KDCA 212052Z 34008KT 10SM FEW037 OVC080 28/20 A2977 RMK AO2 SLP082 T02830200 57004
KDCA 211952Z 02010KT 10SM SCT035 BKN070 BKN200 BKN250 29/21 A2978 RMK AO2 SLP083 T02940206
KDCA 211852Z 01009KT 10SM SCT033 BKN040 BKN065 BKN200 OVC250 28/21 A2978 RMK AO2 SLP085 T02830206
KDCA 211837Z 01008KT 10SM FEW029 BKN038 BKN055 BKN200 OVC250 29/21 A2978 RMK AO2 T02890211
KDCA 211807Z 36008KT 10SM SCT029 BKN038 BKN055 28/21 A2979 RMK AO2 T02780206
KDCA 211752Z 36010KT 10SM BKN029 BKN038 BKN060 28/21 A2979 RMK AO2 SLP086 T02780206 10289 20239 50001
KDCA 211742Z 35008KT 10SM BKN029 BKN035 OVC060 28/21 A2979 RMK AO2 T02830211
KDCA 211652Z 05010KT 10SM SCT025 BKN040 BKN070 27/22 A2979 RMK AO2 SLP087 T02720222
KDCA 211552Z 01010KT 10SM FEW026 SCT038 BKN065 27/21 A2979 RMK AO2 SLP089 T02720211
KDCA 211452Z 35007KT 10SM FEW028 SCT045 OVC060 27/21 A2978 RMK AO2 SLP085 T02720211 53004
KDCA 211352Z 07004KT 10SM FEW025 BKN037 BKN130 26/22 A2978 RMK AO2 SLP083 T02610217
KDCA 211252Z 30004KT 10SM BKN036 BKN130 26/21 A2978 RMK AO2 SLP084 T02610211
KDCA 211152Z 26004KT 10SM FEW012 BKN038 BKN140 24/21 A2977 RMK AO2 SLP082 70013 T02440211 10244 20222 51013
KDCA 211052Z 19003KT 10SM FEW008 BKN043 BKN150 23/21 A2976 RMK AO2 SLP078 T02330211
KDCA 210952Z 22004KT 10SM FEW008 BKN045 BKN150 23/21 A2975 RMK AO2 SLP074 T02280206
KDCA 210852Z 20004KT 10SM BKN150 23/21 A2974 RMK AO2 SLP069 T02280206 56015
KDCA 210752Z 00000KT 10SM BKN160 23/21 A2974 RMK AO2 SLP069 T02280206